sensor_id;sensor_type;location;lat;lon;timestamp;pressure;altitude;pressure_sealevel;temperature;humidity
54876;BME280;40764;48.472;8.166;2023-11-19T00:02:40;98216.59;;;10.63;100.00
54876;BME280;40764;48.472;8.166;2023-11-19T00:08:40;98220.34;;;10.85;100.00
54876;BME280;40764;48.472;8.166;2023-11-19T00:14:40;98196.69;;;10.95;100.00
54876;BME280;40764;48.472;8.166;2023-11-19T00:20:41;98192.34;;;10.94;100.00
54876;BME280;40764;48.472;8.166;2023-11-19T00:26:44;98158.41;;;10.95;100.00
54876;BME280;40764;48.472;8.166;2023-11-19T00:32:45;98174.00;;;10.94;100.00
54876;BME280;40764;48.472;8.166;2023-11-19T00:38:45;98177.03;;;10.93;100.00
54876;BME280;40764;48.472;8.166;2023-11-19T00:44:45;98175.13;;;10.93;100.00
54876;BME280;40764;48.472;8.166;2023-11-19T00:50:46;98175.00;;;11.17;100.00
54876;BME280;40764;48.472;8.166;2023-11-19T00:56:46;98156.44;;;11.14;100.00
54876;BME280;40764;48.472;8.166;2023-11-19T01:02:47;98153.00;;;11.22;100.00
54876;BME280;40764;48.472;8.166;2023-11-19T01:08:49;98145.97;;;11.35;100.00
54876;BME280;40764;48.472;8.166;2023-11-19T01:14:49;98133.09;;;11.35;100.00
54876;BME280;40764;48.472;8.166;2023-11-19T01:20:50;98098.63;;;11.34;100.00
54876;BME280;40764;48.472;8.166;2023-11-19T01:26:50;98134.41;;;11.52;100.00
54876;BME280;40764;48.472;8.166;2023-11-19T01:32:51;98139.50;;;11.58;100.00
54876;BME280;40764;48.472;8.166;2023-11-19T01:38:52;98146.16;;;11.52;100.00
54876;BME280;40764;48.472;8.166;2023-11-19T01:44:59;98130.75;;;11.56;100.00
54876;BME280;40764;48.472;8.166;2023-11-19T01:50:59;98116.78;;;11.44;100.00
54876;BME280;40764;48.472;8.166;2023-11-19T01:57:00;98132.00;;;11.64;100.00
54876;BME280;40764;48.472;8.166;2023-11-19T02:03:01;98113.03;;;11.54;100.00
54876;BME280;40764;48.472;8.166;2023-11-19T02:09:03;98112.34;;;11.62;100.00
54876;BME280;40764;48.472;8.166;2023-11-19T02:15:07;98136.88;;;11.67;100.00
54876;BME280;40764;48.472;8.166;2023-11-19T02:21:08;98148.03;;;11.57;100.00
54876;BME280;40764;48.472;8.166;2023-11-19T02:27:16;98129.97;;;11.69;100.00
54876;BME280;40764;48.472;8.166;2023-11-19T02:33:20;98138.28;;;11.64;100.00
54876;BME280;40764;48.472;8.166;2023-11-19T02:39:20;98131.38;;;11.53;100.00
54876;BME280;40764;48.472;8.166;2023-11-19T02:45:22;98134.31;;;11.43;100.00
54876;BME280;40764;48.472;8.166;2023-11-19T02:51:23;98132.22;;;11.67;100.00
54876;BME280;40764;48.472;8.166;2023-11-19T02:57:23;98136.47;;;11.60;100.00
54876;BME280;40764;48.472;8.166;2023-11-19T03:03:25;98143.06;;;11.59;100.00
54876;BME280;40764;48.472;8.166;2023-11-19T03:09:31;98140.00;;;11.46;100.00
54876;BME280;40764;48.472;8.166;2023-11-19T03:15:31;98139.41;;;11.63;100.00
54876;BME280;40764;48.472;8.166;2023-11-19T03:21:31;98136.06;;;11.80;100.00
54876;BME280;40764;48.472;8.166;2023-11-19T03:27:32;98123.88;;;11.72;100.00
54876;BME280;40764;48.472;8.166;2023-11-19T03:33:32;98125.63;;;11.82;100.00
54876;BME280;40764;48.472;8.166;2023-11-19T03:39:33;98129.19;;;11.83;100.00
54876;BME280;40764;48.472;8.166;2023-11-19T03:45:33;98128.88;;;11.84;100.00
54876;BME280;40764;48.472;8.166;2023-11-19T03:51:33;98131.72;;;11.93;100.00
54876;BME280;40764;48.472;8.166;2023-11-19T03:57:35;98109.63;;;11.89;100.00
54876;BME280;40764;48.472;8.166;2023-11-19T04:03:35;98124.31;;;11.93;100.00
54876;BME280;40764;48.472;8.166;2023-11-19T04:09:35;98135.44;;;12.10;100.00
54876;BME280;40764;48.472;8.166;2023-11-19T04:15:37;98144.69;;;12.01;100.00
54876;BME280;40764;48.472;8.166;2023-11-19T04:21:41;98142.16;;;12.04;100.00
54876;BME280;40764;48.472;8.166;2023-11-19T04:27:42;98132.50;;;12.07;100.00
54876;BME280;40764;48.472;8.166;2023-11-19T04:33:42;98141.53;;;12.07;100.00
54876;BME280;40764;48.472;8.166;2023-11-19T04:39:46;98148.25;;;12.01;100.00
54876;BME280;40764;48.472;8.166;2023-11-19T04:45:46;98147.31;;;12.06;100.00
54876;BME280;40764;48.472;8.166;2023-11-19T04:51:47;98154.44;;;12.07;100.00
54876;BME280;40764;48.472;8.166;2023-11-19T04:57:48;98154.31;;;12.12;100.00
54876;BME280;40764;48.472;8.166;2023-11-19T05:03:48;98155.44;;;12.11;100.00
54876;BME280;40764;48.472;8.166;2023-11-19T05:09:48;98155.84;;;12.18;100.00
54876;BME280;40764;48.472;8.166;2023-11-19T05:15:48;98156.34;;;12.06;100.00
54876;BME280;40764;48.472;8.166;2023-11-19T05:21:49;98126.22;;;12.06;100.00
54876;BME280;40764;48.472;8.166;2023-11-19T05:27:53;98149.06;;;12.02;100.00
54876;BME280;40764;48.472;8.166;2023-11-19T05:33:53;98137.47;;;12.05;100.00
54876;BME280;40764;48.472;8.166;2023-11-19T05:39:53;98153.00;;;12.09;100.00
54876;BME280;40764;48.472;8.166;2023-11-19T05:45:54;98156.47;;;12.15;100.00
54876;BME280;40764;48.472;8.166;2023-11-19T05:51:54;98153.72;;;12.15;100.00
54876;BME280;40764;48.472;8.166;2023-11-19T05:57:55;98151.28;;;12.14;100.00
54876;BME280;40764;48.472;8.166;2023-11-19T06:03:56;98152.31;;;12.18;100.00
54876;BME280;40764;48.472;8.166;2023-11-19T06:09:56;98142.47;;;12.17;100.00
54876;BME280;40764;48.472;8.166;2023-11-19T06:15:56;98125.72;;;12.18;100.00
54876;BME280;40764;48.472;8.166;2023-11-19T06:21:57;98139.72;;;12.17;100.00
54876;BME280;40764;48.472;8.166;2023-11-19T06:27:57;98134.41;;;12.34;100.00
54876;BME280;40764;48.472;8.166;2023-11-19T06:33:57;98122.13;;;12.31;100.00
54876;BME280;40764;48.472;8.166;2023-11-19T06:39:57;98143.59;;;12.52;100.00
54876;BME280;40764;48.472;8.166;2023-11-19T06:45:58;98157.72;;;12.45;100.00
54876;BME280;40764;48.472;8.166;2023-11-19T06:51:58;98141.84;;;12.56;100.00
54876;BME280;40764;48.472;8.166;2023-11-19T06:57:59;98153.81;;;12.60;100.00
54876;BME280;40764;48.472;8.166;2023-11-19T07:04:00;98150.56;;;12.58;100.00
54876;BME280;40764;48.472;8.166;2023-11-19T07:10:02;98143.78;;;12.55;100.00
54876;BME280;40764;48.472;8.166;2023-11-19T07:16:04;98152.50;;;12.57;100.00
54876;BME280;40764;48.472;8.166;2023-11-19T07:22:06;98158.69;;;12.63;100.00
54876;BME280;40764;48.472;8.166;2023-11-19T07:28:07;98178.69;;;12.63;100.00
54876;BME280;40764;48.472;8.166;2023-11-19T07:34:07;98189.22;;;12.70;100.00
54876;BME280;40764;48.472;8.166;2023-11-19T07:40:09;98179.97;;;12.80;100.00
54876;BME280;40764;48.472;8.166;2023-11-19T07:46:13;98180.22;;;12.92;100.00
54876;BME280;40764;48.472;8.166;2023-11-19T07:52:13;98172.31;;;12.90;100.00
54876;BME280;40764;48.472;8.166;2023-11-19T07:58:13;98184.34;;;12.81;100.00
54876;BME280;40764;48.472;8.166;2023-11-19T08:04:14;98185.72;;;12.92;100.00
54876;BME280;40764;48.472;8.166;2023-11-19T08:10:14;98178.88;;;13.03;100.00
54876;BME280;40764;48.472;8.166;2023-11-19T08:16:15;98188.13;;;12.93;100.00
54876;BME280;40764;48.472;8.166;2023-11-19T08:22:15;98172.94;;;13.10;100.00
54876;BME280;40764;48.472;8.166;2023-11-19T08:28:16;98212.63;;;13.26;100.00
54876;BME280;40764;48.472;8.166;2023-11-19T08:34:17;98200.59;;;13.36;100.00
54876;BME280;40764;48.472;8.166;2023-11-19T08:40:17;98207.72;;;13.37;100.00
54876;BME280;40764;48.472;8.166;2023-11-19T08:46:17;98211.56;;;13.36;100.00
54876;BME280;40764;48.472;8.166;2023-11-19T08:52:18;98209.19;;;13.43;100.00
54876;BME280;40764;48.472;8.166;2023-11-19T08:58:18;98213.28;;;13.54;100.00
54876;BME280;40764;48.472;8.166;2023-11-19T09:04:19;98209.66;;;13.67;100.00
54876;BME280;40764;48.472;8.166;2023-11-19T09:10:22;98226.19;;;13.76;100.00
54876;BME280;40764;48.472;8.166;2023-11-19T09:16:22;98240.72;;;13.76;100.00
54876;BME280;40764;48.472;8.166;2023-11-19T09:22:23;98239.13;;;13.84;100.00
54876;BME280;40764;48.472;8.166;2023-11-19T09:28:23;98245.72;;;14.05;100.00
54876;BME280;40764;48.472;8.166;2023-11-19T09:34:23;98237.94;;;13.99;100.00
54876;BME280;40764;48.472;8.166;2023-11-19T09:40:24;98241.00;;;13.97;100.00
54876;BME280;40764;48.472;8.166;2023-11-19T09:46:26;98238.06;;;13.93;100.00
54876;BME280;40764;48.472;8.166;2023-11-19T09:52:26;98237.91;;;13.90;100.00
54876;BME280;40764;48.472;8.166;2023-11-19T09:58:26;98227.13;;;14.02;100.00
54876;BME280;40764;48.472;8.166;2023-11-19T10:04:30;98227.28;;;14.06;100.00
54876;BME280;40764;48.472;8.166;2023-11-19T10:10:31;98217.81;;;14.20;100.00
54876;BME280;40764;48.472;8.166;2023-11-19T10:16:34;98215.72;;;14.17;100.00
54876;BME280;40764;48.472;8.166;2023-11-19T10:22:37;98218.50;;;14.35;100.00
54876;BME280;40764;48.472;8.166;2023-11-19T10:28:40;98215.25;;;14.24;100.00
54876;BME280;40764;48.472;8.166;2023-11-19T10:34:46;98234.94;;;14.17;100.00
54876;BME280;40764;48.472;8.166;2023-11-19T10:40:46;98226.00;;;14.12;100.00
54876;BME280;40764;48.472;8.166;2023-11-19T10:46:48;98240.84;;;14.02;100.00
54876;BME280;40764;48.472;8.166;2023-11-19T10:52:48;98225.94;;;14.34;100.00
54876;BME280;40764;48.472;8.166;2023-11-19T10:58:51;98221.66;;;14.59;100.00
54876;BME280;40764;48.472;8.166;2023-11-19T11:04:54;98200.19;;;14.21;100.00
54876;BME280;40764;48.472;8.166;2023-11-19T11:10:55;98176.38;;;14.08;100.00
54876;BME280;40764;48.472;8.166;2023-11-19T11:16:57;98179.28;;;14.03;100.00
54876;BME280;40764;48.472;8.166;2023-11-19T11:29:28;98189.91;;;14.44;100.00
54876;BME280;40764;48.472;8.166;2023-11-19T11:48:19;98179.25;;;15.29;97.05
54876;BME280;40764;48.472;8.166;2023-11-19T12:00:27;98159.00;;;15.34;94.35
54876;BME280;40764;48.472;8.166;2023-11-19T12:06:27;98163.47;;;15.56;95.78
54876;BME280;40764;48.472;8.166;2023-11-19T12:12:28;98160.88;;;15.68;93.65
54876;BME280;40764;48.472;8.166;2023-11-19T12:18:33;98160.63;;;15.35;94.26
54876;BME280;40764;48.472;8.166;2023-11-19T12:24:33;98157.41;;;15.33;93.52
54876;BME280;40764;48.472;8.166;2023-11-19T12:30:34;98142.09;;;15.53;92.15
54876;BME280;40764;48.472;8.166;2023-11-19T12:36:35;98129.19;;;15.27;92.88
54876;BME280;40764;48.472;8.166;2023-11-19T12:42:37;98123.66;;;15.44;91.99
54876;BME280;40764;48.472;8.166;2023-11-19T12:48:41;98113.34;;;15.24;93.13
54876;BME280;40764;48.472;8.166;2023-11-19T12:54:41;98096.34;;;15.22;93.00
54876;BME280;40764;48.472;8.166;2023-11-19T13:00:42;98098.09;;;15.35;91.28
54876;BME280;40764;48.472;8.166;2023-11-19T13:06:45;98081.34;;;15.49;90.98
54876;BME280;40764;48.472;8.166;2023-11-19T13:13:03;98090.94;;;15.43;90.04
54876;BME280;40764;48.472;8.166;2023-11-19T13:19:04;98092.69;;;15.47;90.79
54876;BME280;40764;48.472;8.166;2023-11-19T13:25:05;98074.84;;;15.62;90.30
54876;BME280;40764;48.472;8.166;2023-11-19T13:31:05;98080.00;;;15.55;90.20
54876;BME280;40764;48.472;8.166;2023-11-19T13:37:06;98066.94;;;15.43;90.65
54876;BME280;40764;48.472;8.166;2023-11-19T13:43:06;98088.03;;;15.39;89.88
54876;BME280;40764;48.472;8.166;2023-11-19T13:49:07;98069.09;;;15.29;90.61
54876;BME280;40764;48.472;8.166;2023-11-19T13:55:10;98069.31;;;15.15;91.83
54876;BME280;40764;48.472;8.166;2023-11-19T14:01:11;98054.91;;;15.10;93.21
54876;BME280;40764;48.472;8.166;2023-11-19T14:07:12;98063.84;;;15.07;92.30
54876;BME280;40764;48.472;8.166;2023-11-19T14:13:13;98061.75;;;15.04;92.12
54876;BME280;40764;48.472;8.166;2023-11-19T14:19:15;98044.38;;;15.12;89.01
54876;BME280;40764;48.472;8.166;2023-11-19T14:25:16;98053.75;;;15.19;91.10
54876;BME280;40764;48.472;8.166;2023-11-19T14:31:16;98057.81;;;15.13;91.01
54876;BME280;40764;48.472;8.166;2023-11-19T14:37:17;98066.75;;;15.02;92.56
54876;BME280;40764;48.472;8.166;2023-11-19T14:43:17;98055.59;;;14.90;93.47
54876;BME280;40764;48.472;8.166;2023-11-19T14:49:17;98052.34;;;14.96;92.79
54876;BME280;40764;48.472;8.166;2023-11-19T14:55:18;98066.59;;;15.07;93.19
54876;BME280;40764;48.472;8.166;2023-11-19T15:01:18;98070.31;;;14.94;94.57
54876;BME280;40764;48.472;8.166;2023-11-19T15:07:18;98073.59;;;14.87;93.78
54876;BME280;40764;48.472;8.166;2023-11-19T15:13:18;98057.25;;;14.73;93.86
54876;BME280;40764;48.472;8.166;2023-11-19T15:19:19;98051.75;;;14.73;93.83
54876;BME280;40764;48.472;8.166;2023-11-19T15:25:20;98080.22;;;14.69;93.38
54876;BME280;40764;48.472;8.166;2023-11-19T15:31:20;98074.25;;;14.58;93.11
54876;BME280;40764;48.472;8.166;2023-11-19T15:37:21;98074.91;;;14.46;92.29
54876;BME280;40764;48.472;8.166;2023-11-19T15:43:21;98071.16;;;14.25;91.34
54876;BME280;40764;48.472;8.166;2023-11-19T15:49:22;98066.91;;;14.10;89.49
54876;BME280;40764;48.472;8.166;2023-11-19T15:55:23;98070.31;;;13.99;88.69
54876;BME280;40764;48.472;8.166;2023-11-19T16:01:23;98071.06;;;13.82;86.41
54876;BME280;40764;48.472;8.166;2023-11-19T16:07:23;98082.34;;;13.63;89.56
54876;BME280;40764;48.472;8.166;2023-11-19T16:13:24;98090.28;;;13.33;93.17
54876;BME280;40764;48.472;8.166;2023-11-19T16:19:24;98091.97;;;13.21;95.26
54876;BME280;40764;48.472;8.166;2023-11-19T16:25:27;98095.59;;;13.08;97.69
54876;BME280;40764;48.472;8.166;2023-11-19T16:31:27;98097.28;;;13.17;98.59
54876;BME280;40764;48.472;8.166;2023-11-19T16:37:28;98083.97;;;13.02;99.82
54876;BME280;40764;48.472;8.166;2023-11-19T16:43:28;98080.59;;;12.83;100.00
54876;BME280;40764;48.472;8.166;2023-11-19T16:49:31;98096.13;;;12.87;100.00
54876;BME280;40764;48.472;8.166;2023-11-19T16:55:32;98081.47;;;12.69;100.00
54876;BME280;40764;48.472;8.166;2023-11-19T17:01:32;98100.56;;;12.75;100.00
54876;BME280;40764;48.472;8.166;2023-11-19T17:07:33;98093.91;;;12.98;100.00
54876;BME280;40764;48.472;8.166;2023-11-19T17:13:34;98095.59;;;13.08;100.00
54876;BME280;40764;48.472;8.166;2023-11-19T17:19:34;98115.00;;;13.11;100.00
54876;BME280;40764;48.472;8.166;2023-11-19T17:25:35;98120.00;;;13.09;100.00
54876;BME280;40764;48.472;8.166;2023-11-19T17:31:36;98109.91;;;13.18;100.00
54876;BME280;40764;48.472;8.166;2023-11-19T17:37:36;98118.72;;;13.15;99.98
54876;BME280;40764;48.472;8.166;2023-11-19T17:43:37;98113.56;;;13.14;100.00
54876;BME280;40764;48.472;8.166;2023-11-19T17:49:37;98119.66;;;13.11;100.00
54876;BME280;40764;48.472;8.166;2023-11-19T17:55:39;98116.19;;;13.19;99.84
54876;BME280;40764;48.472;8.166;2023-11-19T18:01:39;98112.69;;;13.05;100.00
54876;BME280;40764;48.472;8.166;2023-11-19T18:07:40;98117.75;;;13.11;100.00
54876;BME280;40764;48.472;8.166;2023-11-19T18:13:44;98122.25;;;13.07;99.17
54876;BME280;40764;48.472;8.166;2023-11-19T18:19:45;98146.03;;;12.98;100.00
54876;BME280;40764;48.472;8.166;2023-11-19T18:25:45;98132.91;;;12.86;100.00
54876;BME280;40764;48.472;8.166;2023-11-19T18:31:46;98133.56;;;12.92;100.00
54876;BME280;40764;48.472;8.166;2023-11-19T18:37:46;98141.06;;;13.00;99.59
54876;BME280;40764;48.472;8.166;2023-11-19T18:43:47;98147.59;;;12.90;99.52
54876;BME280;40764;48.472;8.166;2023-11-19T18:49:47;98147.75;;;13.08;98.11
54876;BME280;40764;48.472;8.166;2023-11-19T18:55:48;98134.47;;;13.01;98.47
54876;BME280;40764;48.472;8.166;2023-11-19T19:01:50;98139.69;;;12.89;99.22
54876;BME280;40764;48.472;8.166;2023-11-19T19:07:50;98137.75;;;12.89;98.72
54876;BME280;40764;48.472;8.166;2023-11-19T19:13:55;98135.47;;;13.05;98.47
54876;BME280;40764;48.472;8.166;2023-11-19T19:19:55;98151.75;;;13.01;98.76
54876;BME280;40764;48.472;8.166;2023-11-19T19:25:55;98158.84;;;13.02;98.19
54876;BME280;40764;48.472;8.166;2023-11-19T19:31:57;98165.38;;;12.93;98.87
54876;BME280;40764;48.472;8.166;2023-11-19T19:37:58;98174.50;;;13.02;97.86
54876;BME280;40764;48.472;8.166;2023-11-19T19:43:59;98168.00;;;12.76;99.36
54876;BME280;40764;48.472;8.166;2023-11-19T19:49:59;98167.75;;;12.86;98.63
54876;BME280;40764;48.472;8.166;2023-11-19T19:56:01;98192.63;;;12.89;99.51
54876;BME280;40764;48.472;8.166;2023-11-19T20:02:01;98185.25;;;12.98;98.46
54876;BME280;40764;48.472;8.166;2023-11-19T20:08:01;98183.91;;;12.87;99.18
54876;BME280;40764;48.472;8.166;2023-11-19T20:14:02;98195.25;;;12.94;98.96
54876;BME280;40764;48.472;8.166;2023-11-19T20:20:04;98200.19;;;13.06;98.38
54876;BME280;40764;48.472;8.166;2023-11-19T20:26:05;98209.47;;;12.96;98.52
54876;BME280;40764;48.472;8.166;2023-11-19T20:32:06;98220.25;;;12.93;99.72
54876;BME280;40764;48.472;8.166;2023-11-19T20:38:06;98222.63;;;12.86;100.00
54876;BME280;40764;48.472;8.166;2023-11-19T20:44:06;98227.25;;;12.63;100.00
54876;BME280;40764;48.472;8.166;2023-11-19T20:50:08;98213.44;;;12.54;100.00
54876;BME280;40764;48.472;8.166;2023-11-19T20:56:08;98215.56;;;12.57;99.28
54876;BME280;40764;48.472;8.166;2023-11-19T21:02:08;98222.34;;;12.74;100.00
54876;BME280;40764;48.472;8.166;2023-11-19T21:08:09;98217.78;;;12.69;97.52
54876;BME280;40764;48.472;8.166;2023-11-19T21:14:09;98217.16;;;12.72;99.48
54876;BME280;40764;48.472;8.166;2023-11-19T21:20:10;98218.88;;;12.68;98.25
54876;BME280;40764;48.472;8.166;2023-11-19T21:26:11;98219.19;;;12.66;99.96
54876;BME280;40764;48.472;8.166;2023-11-19T21:32:12;98219.13;;;12.58;100.00
54876;BME280;40764;48.472;8.166;2023-11-19T21:38:12;98222.41;;;12.46;100.00
54876;BME280;40764;48.472;8.166;2023-11-19T21:44:14;98221.19;;;12.38;100.00
54876;BME280;40764;48.472;8.166;2023-11-19T21:50:14;98219.88;;;12.36;98.94
54876;BME280;40764;48.472;8.166;2023-11-19T21:56:14;98223.91;;;12.52;98.07
54876;BME280;40764;48.472;8.166;2023-11-19T22:02:16;98217.22;;;12.45;96.77
54876;BME280;40764;48.472;8.166;2023-11-19T22:08:17;98224.91;;;12.56;95.19
54876;BME280;40764;48.472;8.166;2023-11-19T22:14:18;98220.50;;;12.69;93.97
54876;BME280;40764;48.472;8.166;2023-11-19T22:20:18;98216.81;;;12.51;94.76
54876;BME280;40764;48.472;8.166;2023-11-19T22:26:18;98227.03;;;12.59;94.70
54876;BME280;40764;48.472;8.166;2023-11-19T22:32:18;98230.22;;;12.39;96.80
54876;BME280;40764;48.472;8.166;2023-11-19T22:38:20;98235.38;;;12.40;97.19
54876;BME280;40764;48.472;8.166;2023-11-19T22:44:20;98235.00;;;12.47;95.32
54876;BME280;40764;48.472;8.166;2023-11-19T22:50:22;98229.44;;;12.25;96.30
54876;BME280;40764;48.472;8.166;2023-11-19T22:56:23;98230.53;;;12.37;95.11
54876;BME280;40764;48.472;8.166;2023-11-19T23:02:23;98230.41;;;12.43;94.24
54876;BME280;40764;48.472;8.166;2023-11-19T23:08:24;98230.03;;;12.22;94.51
54876;BME280;40764;48.472;8.166;2023-11-19T23:14:24;98236.13;;;12.32;94.76
54876;BME280;40764;48.472;8.166;2023-11-19T23:20:24;98246.25;;;12.32;95.42
54876;BME280;40764;48.472;8.166;2023-11-19T23:26:24;98231.78;;;12.18;95.63
54876;BME280;40764;48.472;8.166;2023-11-19T23:32:25;98235.09;;;12.28;94.79
54876;BME280;40764;48.472;8.166;2023-11-19T23:38:25;98230.75;;;12.27;94.44
54876;BME280;40764;48.472;8.166;2023-11-19T23:44:25;98228.53;;;12.16;95.08
54876;BME280;40764;48.472;8.166;2023-11-19T23:50:26;98218.06;;;12.04;95.89
54876;BME280;40764;48.472;8.166;2023-11-19T23:56:26;98201.22;;;11.97;95.96
